Time;durP1;ratioP1;P1;durP2;ratioP2;P2;SDS_P1;SDS_P2;PMS_P1;PMS_P2;Temp;Humidity;BMP_temperature;BMP_pressure;BME280_temperature;BME280_humidity;BME280_pressure;Samples;Min_cycle;Max_cycle;Signal;HPM_P1;HPM_P2
2023/08/24 00:00:41;;;;;;;0.80;0.80;;;23.20;59.40;;;;;;6195320;28;20497;-75
2023/08/24 00:03:43;;;;;;;0.95;0.80;;;23.30;59.50;;;;;;6194549;28;20038;-74
2023/08/24 00:06:44;;;;;;;0.88;0.85;;;23.30;59.50;;;;;;6195236;28;20477;-74
2023/08/24 00:09:44;;;;;;;1.23;0.75;;;23.30;59.50;;;;;;6194964;28;20108;-73
2023/08/24 00:12:45;;;;;;;0.93;0.82;;;23.30;59.50;;;;;;6194518;28;20026;-75
2023/08/24 00:15:46;;;;;;;0.85;0.80;;;23.30;59.50;;;;;;6194994;28;20425;-74
2023/08/24 00:18:47;;;;;;;0.80;0.80;;;23.30;59.50;;;;;;6194933;28;20050;-74
2023/08/24 00:21:47;;;;;;;1.30;0.82;;;23.30;59.60;;;;;;6194768;28;20482;-74
2023/08/24 00:24:48;;;;;;;1.00;0.90;;;23.20;59.50;;;;;;6193824;28;20507;-74
2023/08/24 00:27:49;;;;;;;0.85;0.70;;;23.30;59.60;;;;;;6195028;28;20030;-74
2023/08/24 00:30:50;;;;;;;1.13;0.80;;;23.20;59.50;;;;;;6194783;28;20034;-73
2023/08/24 00:33:51;;;;;;;0.90;0.80;;;23.20;59.50;;;;;;6194524;28;20050;-74
2023/08/24 00:36:51;;;;;;;0.95;0.85;;;23.30;59.60;;;;;;6194605;28;20040;-74
2023/08/24 00:39:52;;;;;;;1.15;1.00;;;23.30;59.70;;;;;;6194174;28;20026;-74
2023/08/24 00:42:52;;;;;;;0.70;0.70;;;23.20;59.60;;;;;;6193620;28;20026;-74
2023/08/24 00:45:59;;;;;;;0.80;0.70;;;23.20;59.60;;;;;;6196438;28;20038;-74
2023/08/24 00:49:00;;;;;;;1.08;0.90;;;23.20;59.60;;;;;;6194508;28;20037;-75
2023/08/24 00:52:01;;;;;;;0.88;0.73;;;23.20;59.60;;;;;;6194376;28;20030;-74
2023/08/24 00:55:02;;;;;;;1.00;0.75;;;23.20;59.60;;;;;;6194013;28;20205;-75
2023/08/24 00:58:03;;;;;;;1.00;0.75;;;23.20;59.60;;;;;;6193959;28;20027;-74
2023/08/24 01:01:04;;;;;;;1.23;1.10;;;23.20;59.60;;;;;;6194376;28;20026;-74
2023/08/24 01:04:07;;;;;;;0.98;0.80;;;23.20;59.70;;;;;;6193700;28;20026;-74
2023/08/24 01:07:09;;;;;;;0.85;0.77;;;23.20;59.70;;;;;;6194426;28;20036;-75
2023/08/24 01:10:11;;;;;;;0.90;0.80;;;23.20;59.70;;;;;;6193679;28;20125;-74
2023/08/24 01:13:21;;;;;;;0.82;0.80;;;23.20;59.70;;;;;;6194395;28;20029;-74
2023/08/24 01:16:29;;;;;;;1.20;1.10;;;23.30;59.80;;;;;;6194243;28;20101;-74
2023/08/24 01:19:43;;;;;;;1.55;0.70;;;23.20;59.70;;;;;;6193680;28;20026;-75
2023/08/24 01:22:55;;;;;;;0.73;0.70;;;23.20;59.70;;;;;;6193909;28;20115;-74
2023/08/24 01:26:23;;;;;;;1.38;1.10;;;23.20;59.80;;;;;;6194129;28;20082;-74
2023/08/24 01:29:24;;;;;;;1.00;0.88;;;23.20;59.80;;;;;;6190197;28;20415;-75
2023/08/24 01:32:25;;;;;;;0.90;0.85;;;23.20;59.80;;;;;;6196511;28;20084;-74
2023/08/24 01:35:25;;;;;;;0.88;0.75;;;23.20;59.90;;;;;;6193314;28;20057;-74
2023/08/24 01:38:26;;;;;;;0.82;0.80;;;23.20;59.80;;;;;;6190622;28;20166;-75
2023/08/24 01:41:33;;;;;;;0.95;0.82;;;23.20;59.90;;;;;;6193620;28;20031;-73
2023/08/24 01:44:39;;;;;;;0.95;0.80;;;23.20;59.90;;;;;;6197023;28;20035;-75
2023/08/24 01:47:42;;;;;;;1.20;0.95;;;23.20;59.80;;;;;;6194426;28;20034;-74
2023/08/24 01:50:44;;;;;;;1.10;0.98;;;23.20;59.90;;;;;;6193450;28;20224;-75
2023/08/24 01:53:45;;;;;;;0.88;0.85;;;23.20;59.90;;;;;;6194308;28;20045;-74
2023/08/24 01:56:46;;;;;;;1.30;1.10;;;23.20;59.90;;;;;;6197455;28;20033;-75
2023/08/24 01:59:47;;;;;;;0.95;0.82;;;23.20;60.00;;;;;;6189394;28;20053;-75
2023/08/24 02:02:48;;;;;;;1.10;0.90;;;23.20;59.90;;;;;;6193581;28;20027;-74
2023/08/24 02:05:48;;;;;;;1.20;1.08;;;23.20;60.00;;;;;;6197557;28;20072;-75
2023/08/24 02:08:49;;;;;;;1.58;1.00;;;23.20;59.90;;;;;;6194591;28;20158;-75
2023/08/24 02:11:49;;;;;;;1.15;0.95;;;23.20;59.90;;;;;;6198194;28;20042;-75
2023/08/24 02:14:50;;;;;;;1.38;1.00;;;23.20;60.00;;;;;;6197155;28;20014;-75
2023/08/24 02:17:51;;;;;;;0.88;0.80;;;23.20;60.00;;;;;;6197849;28;20026;-75
2023/08/24 02:20:51;;;;;;;1.00;0.82;;;23.20;60.00;;;;;;6197389;28;20061;-74
2023/08/24 02:23:52;;;;;;;1.20;0.90;;;23.20;60.00;;;;;;6197468;28;20030;-75
2023/08/24 02:26:52;;;;;;;1.15;0.95;;;23.20;60.00;;;;;;6197150;28;20112;-75
2023/08/24 02:29:53;;;;;;;0.80;0.80;;;23.20;60.00;;;;;;6197490;28;20043;-75
2023/08/24 02:32:54;;;;;;;1.65;1.20;;;23.20;60.00;;;;;;6197205;28;20022;-75
2023/08/24 02:35:54;;;;;;;1.17;0.98;;;23.20;60.00;;;;;;6200907;28;20038;-75
2023/08/24 02:38:55;;;;;;;1.00;0.82;;;23.20;60.00;;;;;;6193950;28;20453;-74
2023/08/24 02:41:56;;;;;;;0.90;0.90;;;23.20;60.00;;;;;;6196926;28;20053;-75
2023/08/24 02:44:56;;;;;;;1.25;0.90;;;23.20;60.10;;;;;;6196921;28;20049;-74
2023/08/24 02:47:57;;;;;;;1.20;0.90;;;23.20;60.20;;;;;;6197186;28;20085;-74
2023/08/24 02:51:03;;;;;;;0.82;0.80;;;23.20;60.20;;;;;;6196476;28;20798;-75
2023/08/24 02:54:03;;;;;;;1.08;0.80;;;23.20;60.10;;;;;;6195472;28;20026;-75
2023/08/24 02:57:04;;;;;;;1.02;0.93;;;23.20;60.20;;;;;;6196340;28;20146;-75
2023/08/24 03:00:06;;;;;;;0.95;0.85;;;23.20;60.20;;;;;;6197037;28;20069;-75
2023/08/24 03:03:07;;;;;;;1.35;0.80;;;23.20;60.20;;;;;;6196348;28;20033;-75
2023/08/24 03:06:08;;;;;;;1.52;1.08;;;23.20;60.20;;;;;;6197291;28;20027;-75
2023/08/24 03:09:08;;;;;;;0.90;0.82;;;23.20;60.20;;;;;;6196181;28;20046;-74
2023/08/24 03:12:09;;;;;;;1.17;1.02;;;23.20;60.20;;;;;;6195893;28;20022;-75
2023/08/24 03:15:09;;;;;;;0.90;0.73;;;23.20;60.20;;;;;;6196038;28;20089;-74
2023/08/24 03:18:16;;;;;;;0.80;0.80;;;23.20;60.20;;;;;;6196082;28;20014;-75
2023/08/24 03:21:17;;;;;;;0.80;0.80;;;23.20;60.20;;;;;;6195706;28;20477;-75
2023/08/24 03:24:17;;;;;;;0.95;0.85;;;23.20;60.30;;;;;;6195390;28;20046;-75
2023/08/24 03:27:18;;;;;;;1.00;0.90;;;23.20;60.20;;;;;;6195884;28;20464;-75
2023/08/24 03:30:18;;;;;;;1.42;0.90;;;23.20;60.30;;;;;;6195986;28;20033;-75
2023/08/24 03:33:19;;;;;;;2.15;0.80;;;23.20;60.30;;;;;;6196503;28;20030;-75
2023/08/24 03:36:20;;;;;;;1.00;0.90;;;23.20;60.30;;;;;;6198952;28;20389;-74
2023/08/24 03:39:21;;;;;;;0.68;0.68;;;23.20;60.30;;;;;;6192456;28;20022;-74
2023/08/24 03:42:22;;;;;;;0.75;0.75;;;23.20;60.30;;;;;;6195613;28;20089;-75
2023/08/24 03:45:22;;;;;;;1.00;0.90;;;23.20;60.30;;;;;;6195430;28;20058;-75
2023/08/24 03:48:23;;;;;;;1.10;1.00;;;23.20;60.30;;;;;;6195657;28;20109;-74
2023/08/24 03:51:24;;;;;;;1.05;0.95;;;23.20;60.40;;;;;;6195623;28;20026;-75
2023/08/24 03:54:24;;;;;;;1.17;0.82;;;23.20;60.40;;;;;;6195843;28;20097;-74
2023/08/24 03:57:25;;;;;;;0.98;0.80;;;23.20;60.40;;;;;;6195260;28;20026;-75
2023/08/24 04:00:41;;;;;;;0.98;0.88;;;23.20;60.40;;;;;;6195370;28;20081;-74
2023/08/24 04:03:42;;;;;;;1.17;0.98;;;23.20;60.40;;;;;;6195094;28;20401;-74
2023/08/24 04:06:43;;;;;;;1.20;0.90;;;23.20;60.40;;;;;;6194768;28;20038;-74
2023/08/24 04:09:45;;;;;;;1.05;0.90;;;23.20;60.40;;;;;;6194740;28;20058;-75
2023/08/24 04:12:45;;;;;;;0.80;0.80;;;23.20;60.50;;;;;;6194965;28;20034;-75
2023/08/24 04:15:46;;;;;;;1.25;0.80;;;23.20;60.50;;;;;;6194240;28;20030;-74
2023/08/24 04:18:47;;;;;;;1.05;0.80;;;23.20;60.40;;;;;;6194586;28;20023;-74
2023/08/24 04:21:47;;;;;;;0.90;0.80;;;23.20;60.40;;;;;;6198111;28;20038;-74
2023/08/24 04:24:48;;;;;;;0.70;0.70;;;23.20;60.40;;;;;;6193356;28;20027;-74
2023/08/24 04:27:49;;;;;;;1.15;0.85;;;23.20;60.40;;;;;;6194508;28;20365;-74
2023/08/24 04:30:54;;;;;;;0.90;0.70;;;23.20;60.50;;;;;;6194639;28;20027;-75
2023/08/24 04:33:54;;;;;;;1.10;0.90;;;23.20;60.40;;;;;;6194945;28;20022;-74
2023/08/24 04:36:55;;;;;;;0.70;0.70;;;23.20;60.50;;;;;;6197992;28;20521;-75
2023/08/24 04:39:56;;;;;;;0.90;0.90;;;23.20;60.50;;;;;;6193917;28;20034;-74
2023/08/24 04:42:56;;;;;;;1.00;0.90;;;23.20;60.60;;;;;;6194192;28;20018;-75
2023/08/24 04:45:57;;;;;;;1.05;0.90;;;23.20;60.50;;;;;;6194544;28;20022;-75
2023/08/24 04:48:57;;;;;;;0.70;0.60;;;23.20;60.50;;;;;;6193634;28;20026;-73
2023/08/24 04:51:58;;;;;;;0.82;0.82;;;23.20;60.60;;;;;;6194004;28;20073;-74
2023/08/24 04:54:59;;;;;;;1.05;0.80;;;23.20;60.60;;;;;;6194266;28;20405;-74
2023/08/24 04:57:59;;;;;;;1.20;0.90;;;23.20;60.60;;;;;;6193839;28;20132;-74
2023/08/24 05:01:00;;;;;;;1.15;0.93;;;23.20;60.60;;;;;;6191550;28;20487;-74
2023/08/24 05:04:01;;;;;;;1.05;0.95;;;23.20;60.60;;;;;;6182231;28;20042;-74
2023/08/24 05:07:01;;;;;;;1.30;0.88;;;23.20;60.60;;;;;;6193994;28;20034;-73
2023/08/24 05:10:03;;;;;;;1.10;0.95;;;23.20;60.60;;;;;;6193670;28;20085;-73
2023/08/24 05:13:04;;;;;;;0.98;0.80;;;23.20;60.60;;;;;;6194256;28;20025;-74
2023/08/24 05:16:05;;;;;;;1.00;0.90;;;23.20;60.60;;;;;;6194246;28;20077;-74
2023/08/24 05:19:05;;;;;;;1.00;0.90;;;23.20;60.70;;;;;;6193557;28;20030;-74
2023/08/24 05:22:06;;;;;;;1.17;0.80;;;23.20;60.60;;;;;;6195986;28;20034;-74
2023/08/24 05:25:07;;;;;;;0.85;0.82;;;23.20;60.60;;;;;;6193517;28;20392;-74
2023/08/24 05:28:07;;;;;;;0.70;0.70;;;23.20;60.60;;;;;;6193593;28;20022;-74
2023/08/24 05:31:08;;;;;;;0.93;0.88;;;23.20;60.60;;;;;;6193738;28;20122;-73
2023/08/24 05:34:08;;;;;;;1.02;0.88;;;23.20;60.70;;;;;;6193894;28;20478;-74
2023/08/24 05:37:09;;;;;;;1.20;1.10;;;23.30;60.80;;;;;;6194272;28;20027;-74
2023/08/24 05:40:10;;;;;;;1.10;0.82;;;23.20;60.70;;;;;;6192987;28;20061;-74
2023/08/24 05:43:10;;;;;;;0.82;0.80;;;23.20;60.70;;;;;;6195376;28;20044;-74
2023/08/24 05:46:11;;;;;;;1.00;0.90;;;23.30;60.80;;;;;;6198049;28;20268;-74
2023/08/24 05:49:12;;;;;;;1.30;1.00;;;23.20;60.70;;;;;;6197716;28;20427;-74
2023/08/24 05:52:12;;;;;;;1.02;0.80;;;23.30;60.80;;;;;;6197883;28;20041;-73
2023/08/24 05:55:13;;;;;;;1.05;0.77;;;23.20;60.70;;;;;;6197997;28;20018;-74
2023/08/24 05:58:14;;;;;;;0.85;0.80;;;23.20;60.80;;;;;;6197856;28;20386;-73
2023/08/24 06:01:14;;;;;;;0.57;0.57;;;23.30;60.80;;;;;;6186553;28;20440;-74
2023/08/24 06:04:15;;;;;;;1.10;0.80;;;23.30;60.80;;;;;;6187105;28;20073;-74
2023/08/24 06:07:16;;;;;;;0.82;0.80;;;23.30;60.80;;;;;;6198945;28;20018;-74
2023/08/24 06:10:17;;;;;;;0.98;0.82;;;23.30;60.80;;;;;;6195653;28;20050;-74
2023/08/24 06:13:18;;;;;;;1.02;0.88;;;23.20;60.70;;;;;;6198696;28;20038;-74
2023/08/24 06:16:19;;;;;;;1.23;0.90;;;23.30;60.90;;;;;;6199177;28;20381;-74
2023/08/24 06:19:19;;;;;;;0.77;0.73;;;23.30;61.00;;;;;;6198528;28;20102;-74
2023/08/24 06:22:20;;;;;;;0.88;0.70;;;23.20;60.80;;;;;;6197977;28;20030;-74
2023/08/24 06:25:20;;;;;;;1.02;0.90;;;23.30;60.90;;;;;;6196219;28;20117;-74
2023/08/24 06:28:21;;;;;;;0.60;0.60;;;23.20;60.80;;;;;;6198371;28;20049;-74
2023/08/24 06:31:22;;;;;;;1.30;0.80;;;23.20;60.80;;;;;;6199824;28;20430;-74
2023/08/24 06:34:23;;;;;;;0.95;0.77;;;23.20;60.80;;;;;;6197827;28;20373;-74
2023/08/24 06:37:23;;;;;;;0.93;0.88;;;23.20;60.80;;;;;;6198191;28;20109;-74
2023/08/24 06:40:24;;;;;;;1.10;1.00;;;23.20;60.80;;;;;;6197130;28;20107;-74
2023/08/24 06:43:26;;;;;;;0.95;0.80;;;23.20;60.90;;;;;;6186140;28;20039;-74
2023/08/24 06:46:26;;;;;;;0.80;0.80;;;23.20;60.90;;;;;;6197336;28;20492;-74
2023/08/24 06:49:27;;;;;;;0.73;0.70;;;23.20;61.70;;;;;;6197466;28;20122;-74
2023/08/24 06:52:27;;;;;;;1.25;0.95;;;23.20;60.80;;;;;;6197370;28;20470;-74
2023/08/24 06:55:29;;;;;;;1.10;0.90;;;23.20;61.00;;;;;;6196867;28;20417;-73
2023/08/24 06:58:29;;;;;;;1.23;0.90;;;23.20;60.80;;;;;;6197586;28;20448;-74
2023/08/24 07:01:31;;;;;;;1.17;0.80;;;23.20;60.90;;;;;;6196999;28;20033;-74
2023/08/24 07:04:34;;;;;;;0.75;0.75;;;23.20;60.90;;;;;;6196829;28;20046;-74
2023/08/24 07:07:35;;;;;;;1.15;0.88;;;23.20;61.00;;;;;;6193846;28;20477;-74
2023/08/24 07:10:35;;;;;;;1.15;0.85;;;23.20;60.90;;;;;;6197113;28;20057;-73
2023/08/24 07:13:36;;;;;;;0.82;0.70;;;23.20;61.00;;;;;;6197099;28;20050;-74
2023/08/24 07:16:37;;;;;;;0.70;0.70;;;23.20;60.90;;;;;;6196898;28;20019;-74
2023/08/24 07:19:37;;;;;;;0.63;0.63;;;23.20;60.90;;;;;;6190652;28;20023;-74
2023/08/24 07:22:38;;;;;;;1.35;0.70;;;23.20;61.00;;;;;;6184363;28;20037;-74
2023/08/24 07:25:38;;;;;;;1.50;0.98;;;23.20;61.00;;;;;;6179839;28;20485;-74
2023/08/24 07:28:39;;;;;;;1.42;0.90;;;23.20;61.00;;;;;;6197361;28;20092;-74
2023/08/24 07:31:40;;;;;;;0.85;0.70;;;23.20;61.00;;;;;;6184336;28;20022;-74
2023/08/24 07:34:41;;;;;;;0.68;0.65;;;23.20;61.10;;;;;;6197031;28;20366;-73
2023/08/24 07:37:41;;;;;;;1.02;0.90;;;23.20;61.00;;;;;;6195592;28;20061;-74
2023/08/24 07:40:42;;;;;;;1.20;0.90;;;23.20;61.00;;;;;;6196165;28;20026;-75
2023/08/24 07:43:43;;;;;;;1.08;0.77;;;23.20;61.00;;;;;;6195769;28;20509;-74
2023/08/24 07:46:44;;;;;;;0.52;0.52;;;23.20;61.00;;;;;;6184046;28;20038;-74
2023/08/24 07:49:44;;;;;;;1.15;0.80;;;23.20;61.10;;;;;;6196331;28;20029;-74
2023/08/24 07:52:45;;;;;;;0.90;0.80;;;23.30;62.50;;;;;;6196138;28;20030;-75
2023/08/24 07:55:46;;;;;;;0.93;0.80;;;23.30;62.20;;;;;;6197660;28;20019;-74
2023/08/24 07:58:47;;;;;;;1.35;1.00;;;23.30;61.40;;;;;;6197886;28;20036;-75
2023/08/24 08:01:47;;;;;;;0.82;0.70;;;23.30;61.20;;;;;;6201500;28;20681;-75
2023/08/24 08:04:48;;;;;;;1.48;0.68;;;23.30;61.30;;;;;;6197758;28;20041;-76
2023/08/24 08:07:49;;;;;;;0.98;0.73;;;23.30;61.20;;;;;;6196147;28;20026;-76
2023/08/24 08:10:58;;;;;;;1.20;0.80;;;23.30;61.50;;;;;;6197535;28;20505;-75
2023/08/24 08:13:59;;;;;;;1.05;0.90;;;23.30;61.50;;;;;;6199343;28;20033;-75
2023/08/24 08:16:59;;;;;;;1.17;0.80;;;23.30;61.60;;;;;;6197599;28;20030;-75
2023/08/24 08:20:00;;;;;;;0.68;0.68;;;23.30;61.60;;;;;;6200625;28;20030;-75
2023/08/24 08:23:01;;;;;;;1.00;0.90;;;23.30;61.80;;;;;;6190055;28;20366;-74
2023/08/24 08:26:01;;;;;;;1.40;1.00;;;23.30;62.00;;;;;;6209126;28;20037;-74
2023/08/24 08:29:02;;;;;;;2.78;1.27;;;23.30;62.00;;;;;;6196980;28;20389;-74
2023/08/24 08:32:04;;;;;;;4.10;1.25;;;23.30;62.20;;;;;;6200121;28;20076;-74
2023/08/24 08:35:05;;;;;;;2.30;1.02;;;23.30;61.90;;;;;;6196849;28;20030;-74
2023/08/24 08:38:09;;;;;;;2.47;1.05;;;23.30;61.70;;;;;;6196466;28;20026;-74
2023/08/24 08:41:10;;;;;;;4.47;1.40;;;23.30;61.70;;;;;;6196603;28;20061;-75
2023/08/24 08:44:13;;;;;;;4.90;1.02;;;23.30;61.60;;;;;;6188715;28;20088;-75
2023/08/24 08:47:14;;;;;;;3.55;1.25;;;23.20;61.50;;;;;;6197222;28;20018;-74
2023/08/24 08:50:15;;;;;;;2.10;1.20;;;23.20;61.50;;;;;;6196823;28;20049;-74
2023/08/24 08:53:16;;;;;;;2.28;1.10;;;23.20;61.50;;;;;;6199540;28;20478;-76
2023/08/24 08:56:17;;;;;;;1.40;1.13;;;23.20;61.50;;;;;;6197535;28;20018;-75
2023/08/24 08:59:18;;;;;;;4.72;1.33;;;23.20;61.50;;;;;;6196764;28;20031;-75
2023/08/24 09:02:20;;;;;;;4.30;0.90;;;23.20;61.50;;;;;;6196533;28;20023;-75
2023/08/24 09:05:21;;;;;;;1.45;1.20;;;23.20;61.50;;;;;;6187369;28;20038;-75
2023/08/24 09:08:22;;;;;;;1.73;1.10;;;23.20;61.50;;;;;;6196373;28;20489;-75
2023/08/24 09:11:23;;;;;;;1.70;1.00;;;23.20;61.50;;;;;;6186286;28;20050;-75
2023/08/24 09:14:24;;;;;;;1.67;0.93;;;23.20;61.50;;;;;;6197163;28;20473;-75
2023/08/24 09:17:25;;;;;;;2.33;1.20;;;23.20;61.50;;;;;;6197403;28;20021;-75
2023/08/24 09:20:29;;;;;;;1.83;1.10;;;23.20;61.50;;;;;;6202211;28;20029;-75
2023/08/24 09:23:29;;;;;;;4.20;1.20;;;23.20;61.50;;;;;;6201028;28;20063;-75
2023/08/24 09:26:42;;;;;;;1.48;1.10;;;23.20;61.50;;;;;;6204392;28;20053;-74
2023/08/24 09:29:43;;;;;;;2.13;1.10;;;23.20;61.50;;;;;;6200474;28;20050;-75
2023/08/24 09:32:44;;;;;;;3.15;1.10;;;23.20;61.50;;;;;;6201280;28;20068;-76
2023/08/24 09:35:45;;;;;;;2.03;1.25;;;23.20;61.50;;;;;;6201820;28;20023;-75
2023/08/24 09:38:51;;;;;;;1.13;0.88;;;23.20;61.50;;;;;;6201129;28;20394;-74
2023/08/24 09:41:53;;;;;;;1.73;1.10;;;23.20;61.50;;;;;;6201230;28;20034;-75
2023/08/24 09:44:53;;;;;;;1.67;0.80;;;23.20;61.50;;;;;;6201395;28;20065;-75
2023/08/24 09:47:54;;;;;;;1.45;0.98;;;23.20;61.40;;;;;;6201767;28;20481;-75
2023/08/24 09:50:57;;;;;;;1.80;1.02;;;23.20;61.40;;;;;;6201801;28;20100;-74
2023/08/24 09:53:59;;;;;;;4.47;1.15;;;23.20;61.40;;;;;;6201644;28;20433;-75
2023/08/24 09:57:00;;;;;;;2.22;0.90;;;23.20;61.50;;;;;;6201617;28;20433;-75
2023/08/24 10:00:06;;;;;;;3.65;1.10;;;23.20;61.60;;;;;;6178043;28;20030;-75
2023/08/24 10:03:09;;;;;;;1.25;0.90;;;23.20;61.60;;;;;;6183039;28;20030;-75
2023/08/24 10:06:12;;;;;;;4.32;0.95;;;23.20;61.60;;;;;;6201665;28;20429;-75
2023/08/24 10:09:21;;;;;;;1.70;1.20;;;23.20;61.60;;;;;;6200999;28;20062;-75
2023/08/24 10:12:26;;;;;;;1.98;1.23;;;23.20;61.60;;;;;;6200284;28;20022;-75
2023/08/24 10:15:27;;;;;;;;;;;23.20;61.70;;;;;;6201473;28;20022;-75
2023/08/24 10:18:28;;;;;;;1.30;0.90;;;23.20;61.80;;;;;;6201044;28;19909;-75
2023/08/24 10:21:29;;;;;;;1.55;1.00;;;23.20;61.60;;;;;;6201016;28;20072;-74
2023/08/24 10:24:32;;;;;;;2.15;0.80;;;23.20;61.60;;;;;;6200815;28;20034;-76
2023/08/24 10:27:32;;;;;;;0.98;0.88;;;23.20;61.60;;;;;;6201029;28;20022;-75
2023/08/24 10:30:35;;;;;;;1.40;0.90;;;23.20;61.60;;;;;;6199800;28;20451;-75
2023/08/24 10:33:37;;;;;;;1.88;1.27;;;23.20;61.50;;;;;;6204876;28;20022;-75
2023/08/24 10:36:41;;;;;;;1.50;1.00;;;23.20;61.50;;;;;;6200857;28;20031;-75
2023/08/24 10:39:46;;;;;;;1.65;1.13;;;23.20;61.50;;;;;;6200670;28;20370;-75
2023/08/24 10:42:48;;;;;;;1.30;0.90;;;23.20;61.50;;;;;;6200546;28;20027;-74
2023/08/24 10:46:01;;;;;;;1.75;0.95;;;23.20;62.40;;;;;;6200581;28;20038;-75
2023/08/24 10:49:04;;;;;;;0.82;0.70;;;23.20;61.60;;;;;;6200315;28;20169;-75
2023/08/24 10:52:20;;;;;;;0.88;0.73;;;23.20;61.50;;;;;;6200531;28;20034;-75
2023/08/24 10:55:23;;;;;;;0.70;0.70;;;23.20;61.50;;;;;;6200305;28;20106;-75
2023/08/24 10:58:24;;;;;;;1.83;0.90;;;23.10;61.40;;;;;;6199721;28;20022;-75
2023/08/24 11:01:25;;;;;;;1.17;0.90;;;23.10;61.40;;;;;;6200693;28;20018;-75
2023/08/24 11:04:27;;;;;;;3.35;1.10;;;23.10;61.40;;;;;;6199789;28;20042;-75
2023/08/24 11:07:28;;;;;;;0.80;0.70;;;23.20;61.50;;;;;;6200553;28;20503;-75
2023/08/24 11:10:48;;;;;;;0.73;0.73;;;23.20;61.50;;;;;;6199769;28;20046;-75
2023/08/24 11:14:19;;;;;;;1.20;0.98;;;23.10;61.40;;;;;;6199648;28;20042;-75
2023/08/24 11:17:21;;;;;;;0.82;0.75;;;23.10;61.40;;;;;;6200086;28;20026;-75
2023/08/24 11:20:22;;;;;;;1.20;0.93;;;23.10;61.40;;;;;;6199776;28;20032;-75
2023/08/24 11:23:24;;;;;;;1.00;0.80;;;23.10;61.40;;;;;;6203626;28;20034;-75
2023/08/24 11:26:26;;;;;;;1.10;0.80;;;23.10;61.50;;;;;;6199968;28;20060;-75
2023/08/24 11:29:26;;;;;;;0.82;0.68;;;23.10;61.50;;;;;;6199528;28;20031;-75
2023/08/24 11:32:27;;;;;;;1.88;0.70;;;23.10;61.50;;;;;;6199364;28;20031;-75
2023/08/24 11:35:28;;;;;;;1.35;1.00;;;23.10;61.50;;;;;;6213702;28;20022;-75
2023/08/24 11:38:41;;;;;;;0.90;0.80;;;23.10;61.40;;;;;;6199381;28;20026;-75
2023/08/24 11:41:42;;;;;;;1.15;0.80;;;23.10;61.50;;;;;;6199001;28;20101;-75
2023/08/24 11:44:47;;;;;;;0.98;0.77;;;23.10;61.50;;;;;;6199298;28;20036;-75
2023/08/24 11:47:48;;;;;;;1.05;0.80;;;23.10;61.50;;;;;;6199139;28;20087;-75
2023/08/24 11:50:51;;;;;;;0.80;0.70;;;23.10;61.50;;;;;;6199481;28;20057;-75
2023/08/24 11:53:52;;;;;;;0.95;0.80;;;23.10;61.50;;;;;;6201155;28;20026;-74
2023/08/24 11:56:52;;;;;;;0.82;0.70;;;23.10;61.50;;;;;;6199022;28;20022;-76
2023/08/24 11:59:54;;;;;;;1.10;0.80;;;23.10;61.50;;;;;;6198659;28;20026;-75
2023/08/24 12:02:57;;;;;;;1.10;0.80;;;23.10;61.50;;;;;;6202289;28;20026;-75
2023/08/24 12:06:11;;;;;;;1.23;0.90;;;23.10;61.50;;;;;;6198907;28;20018;-76
2023/08/24 12:09:12;;;;;;;2.30;0.80;;;23.20;61.70;;;;;;6197974;28;20046;-75
2023/08/24 12:12:16;;;;;;;0.98;0.75;;;23.20;61.80;;;;;;6197205;28;20508;-75
2023/08/24 12:15:20;;;;;;;0.95;0.82;;;23.20;61.70;;;;;;6197043;28;20046;-74
2023/08/24 12:18:21;;;;;;;1.40;0.90;;;23.20;61.70;;;;;;6197025;28;20050;-75
2023/08/24 12:21:23;;;;;;;1.25;0.82;;;23.20;61.80;;;;;;6179137;28;20040;-75
2023/08/24 12:24:23;;;;;;;1.00;0.90;;;23.10;61.60;;;;;;6199152;28;20504;-75
2023/08/24 12:27:26;;;;;;;1.17;0.63;;;23.10;61.70;;;;;;6195383;28;20077;-77
2023/08/24 12:30:27;;;;;;;1.38;0.80;;;23.10;61.70;;;;;;6195823;28;20031;-76
2023/08/24 12:33:30;;;;;;;0.90;0.75;;;23.10;61.80;;;;;;6195954;28;20049;-75
2023/08/24 12:36:36;;;;;;;1.10;0.60;;;23.10;61.70;;;;;;6195757;28;20081;-76
2023/08/24 12:39:39;;;;;;;0.70;0.70;;;23.10;61.70;;;;;;6195613;28;20057;-75
2023/08/24 12:42:39;;;;;;;1.15;0.73;;;23.10;61.70;;;;;;6189640;28;20034;-75
2023/08/24 12:45:40;;;;;;;0.90;0.63;;;23.10;61.80;;;;;;6190958;28;20034;-76
2023/08/24 12:48:41;;;;;;;0.80;0.77;;;23.10;61.70;;;;;;6195658;28;20422;-76
2023/08/24 12:51:42;;;;;;;1.00;0.70;;;23.10;61.70;;;;;;6194844;28;20036;-76
2023/08/24 12:54:43;;;;;;;0.82;0.73;;;23.10;61.80;;;;;;6194304;28;20032;-75
2023/08/24 12:57:43;;;;;;;1.40;0.80;;;23.10;61.80;;;;;;6195581;28;20411;-76
2023/08/24 13:00:44;;;;;;;0.98;0.70;;;23.10;61.70;;;;;;6194895;28;20030;-75
2023/08/24 13:03:45;;;;;;;2.60;0.80;;;23.10;62.60;;;;;;6199964;28;20038;-75
2023/08/24 13:06:45;;;;;;;3.42;0.80;;;23.10;61.70;;;;;;6195209;28;20109;-75
2023/08/24 13:09:46;;;;;;;4.05;0.88;;;23.10;61.70;;;;;;6195648;28;20054;-75
2023/08/24 13:12:46;;;;;;;0.63;0.60;;;23.10;61.70;;;;;;6195232;28;20037;-75
2023/08/24 13:15:50;;;;;;;1.30;0.90;;;23.10;61.80;;;;;;6194440;28;20032;-76
2023/08/24 13:18:51;;;;;;;0.88;0.70;;;23.10;61.70;;;;;;6195415;28;20564;-76
2023/08/24 13:21:51;;;;;;;0.80;0.70;;;23.10;61.70;;;;;;6209874;28;20045;-76
2023/08/24 13:24:52;;;;;;;0.95;0.73;;;23.10;61.70;;;;;;6194525;28;20034;-76
2023/08/24 13:27:53;;;;;;;1.92;0.80;;;23.10;61.80;;;;;;6194987;28;20037;-76
2023/08/24 13:30:54;;;;;;;1.33;0.80;;;23.10;61.70;;;;;;6195075;28;20038;-76
2023/08/24 13:33:54;;;;;;;1.30;0.80;;;23.10;61.70;;;;;;6194525;28;20053;-76
2023/08/24 13:36:55;;;;;;;0.60;0.57;;;23.10;61.80;;;;;;6194465;28;20026;-76
2023/08/24 13:39:55;;;;;;;0.90;0.70;;;23.10;61.80;;;;;;6194772;28;20046;-77
2023/08/24 13:42:56;;;;;;;2.30;0.50;;;23.10;61.90;;;;;;6194388;28;20041;-77
2023/08/24 13:45:57;;;;;;;2.15;0.80;;;23.10;62.00;;;;;;6193733;28;20074;-76
2023/08/24 13:48:57;;;;;;;0.63;0.63;;;23.10;62.00;;;;;;6194491;28;20077;-77
2023/08/24 13:51:58;;;;;;;1.17;0.88;;;23.10;62.00;;;;;;6194662;28;20026;-76
2023/08/24 13:54:59;;;;;;;412.38;12.23;;;23.10;62.00;;;;;;6195956;28;20030;-75
2023/08/24 13:57:59;;;;;;;97.97;2.50;;;23.20;63.50;;;;;;6194744;28;20022;-76
2023/08/24 14:01:02;;;;;;;63.97;2.72;;;23.30;63.00;;;;;;6196172;28;20121;-74
2023/08/24 14:04:04;;;;;;;41.97;2.58;;;23.30;63.70;;;;;;6196290;28;20080;-73
2023/08/24 14:07:04;;;;;;;25.92;1.70;;;23.30;65.00;;;;;;6198780;28;20070;-74
2023/08/24 14:10:07;;;;;;;19.10;1.70;;;23.30;64.30;;;;;;6199123;28;20081;-74
2023/08/24 14:13:08;;;;;;;17.95;1.48;;;23.20;64.20;;;;;;6199089;28;20018;-73
2023/08/24 14:16:08;;;;;;;24.95;2.20;;;23.20;64.10;;;;;;6198930;28;20030;-74
2023/08/24 14:19:09;;;;;;;10.90;1.10;;;23.20;63.80;;;;;;6198244;28;20034;-74
2023/08/24 14:22:10;;;;;;;14.30;1.67;;;23.20;63.70;;;;;;6198307;28;20035;-74
2023/08/24 14:25:10;;;;;;;10.05;1.50;;;23.20;63.60;;;;;;6197894;28;20044;-74
2023/08/24 14:28:11;;;;;;;5.10;1.17;;;23.20;63.50;;;;;;6198057;28;20026;-74
2023/08/24 14:31:11;;;;;;;6.28;1.30;;;23.20;63.40;;;;;;6199159;28;20034;-74
2023/08/24 14:34:12;;;;;;;2.97;1.10;;;23.20;63.30;;;;;;6198103;28;20022;-74
2023/08/24 14:37:13;;;;;;;3.00;1.10;;;23.20;63.20;;;;;;6198572;28;20045;-73
2023/08/24 14:40:16;;;;;;;5.05;1.15;;;23.20;63.30;;;;;;6198072;28;20026;-74
2023/08/24 14:43:16;;;;;;;5.45;1.13;;;23.20;63.20;;;;;;6197973;28;20504;-73
2023/08/24 14:46:17;;;;;;;4.72;0.93;;;23.20;63.10;;;;;;6198096;28;20031;-73
2023/08/24 14:49:18;;;;;;;3.08;1.10;;;23.20;63.00;;;;;;6197351;28;20088;-74
2023/08/24 14:52:19;;;;;;;4.25;1.15;;;23.20;63.00;;;;;;6197887;28;20053;-74
2023/08/24 14:55:20;;;;;;;4.78;1.80;;;23.10;62.90;;;;;;6197719;28;20018;-74
2023/08/24 14:58:21;;;;;;;5.45;1.10;;;23.20;62.90;;;;;;6197122;28;20461;-74
2023/08/24 15:01:22;;;;;;;5.45;1.58;;;23.20;62.90;;;;;;6198061;28;20073;-74
2023/08/24 15:04:23;;;;;;;2.13;1.08;;;23.10;62.70;;;;;;6197365;28;20064;-73
2023/08/24 15:07:23;;;;;;;4.38;1.10;;;23.20;62.80;;;;;;6197829;28;20029;-74
2023/08/24 15:10:24;;;;;;;4.90;1.10;;;23.20;62.80;;;;;;6197350;28;20101;-73
2023/08/24 15:13:25;;;;;;;2.17;1.02;;;23.10;62.70;;;;;;6197529;28;20022;-74
2023/08/24 15:16:26;;;;;;;4.63;0.90;;;23.10;62.70;;;;;;6197200;28;20588;-75
2023/08/24 15:19:27;;;;;;;2.03;1.00;;;23.10;62.70;;;;;;6197332;28;20015;-73
2023/08/24 15:22:28;;;;;;;1.92;1.17;;;23.10;62.60;;;;;;6196041;28;20034;-73
2023/08/24 15:25:29;;;;;;;2.67;1.48;;;23.10;62.60;;;;;;6194552;28;20216;-73
2023/08/24 15:28:57;;;;;;;2.13;1.13;;;23.10;62.60;;;;;;6195951;28;20640;-74
2023/08/24 15:31:57;;;;;;;2.72;0.95;;;23.10;62.60;;;;;;6171817;28;20097;-73
2023/08/24 15:34:59;;;;;;;2.95;0.82;;;23.10;62.60;;;;;;6189233;28;20637;-74
2023/08/24 15:37:59;;;;;;;1.42;0.80;;;23.10;62.60;;;;;;6196220;28;20025;-74
2023/08/24 15:41:00;;;;;;;3.67;0.88;;;23.10;62.60;;;;;;6195670;28;20054;-74
2023/08/24 15:44:01;;;;;;;2.05;0.88;;;23.10;62.60;;;;;;6195434;28;20041;-73